Maldives Meteorological Service

SYNOP

Station Code SYNOP
43555
AAXX 30184 43555 11465 72714 10281 20253 30115 40117 60061 70282 82232 333 58008 82817 85361=
43533
AAXX 30184 43533 11462 82709 10275 20248 30107 40109 60031 70262 8227/ 333 58003 82817 87461=
43577
AAXX 30184 43577 11430 71104 10261 20253 30119 40121 60101 78198 8497/ 333 59002 83816 82917 87362=
43588
AAXX 30184 43588 12465 51604 10283 20250 30114 40115 60001 82202 333 59004 82818 83077=
43599
AAXX 30184 43599 12460 71607 10282 20248 30113 40115 60001 82232 333 59008 82818 87076=
Last Updated : 2020-05-30 22:59:53